Time;durP1;ratioP1;P1;durP2;ratioP2;P2;SDS_P1;SDS_P2;PMS_P1;PMS_P2;Temp;Humidity;BMP_temperature;BMP_pressure;BME280_temperature;BME280_humidity;BME280_pressure;Samples;Min_cycle;Max_cycle;Signal;HPM_P1;HPM_P2
2022/04/08 00:01:41;;;;;;;3.03;0.90;;;8.40;87.20;;;;;;5057023;28;20035;-65
2022/04/08 00:04:07;;;;;;;3.22;0.73;;;8.40;86.90;;;;;;5055297;28;20514;-67
2022/04/08 00:06:33;;;;;;;3.22;1.00;;;8.40;86.90;;;;;;5059653;28;20036;-67
2022/04/08 00:08:59;;;;;;;3.17;1.13;;;8.40;86.80;;;;;;5059015;28;20020;-67
2022/04/08 00:11:25;;;;;;;3.25;1.17;;;8.40;86.90;;;;;;5058161;28;20059;-67
2022/04/08 00:13:53;;;;;;;3.78;0.90;;;8.40;87.00;;;;;;5059568;28;20105;-66
2022/04/08 00:16:20;;;;;;;2.45;0.98;;;8.50;87.30;;;;;;5053133;28;20044;-67
2022/04/08 00:18:46;;;;;;;4.03;1.30;;;8.50;87.20;;;;;;5055207;28;20111;-67
2022/04/08 00:21:13;;;;;;;4.90;1.40;;;8.40;87.60;;;;;;5057904;28;20054;-67
2022/04/08 00:23:39;;;;;;;2.60;1.00;;;8.40;87.20;;;;;;5058588;28;20028;-67
2022/04/08 00:26:05;;;;;;;3.38;1.23;;;8.40;86.20;;;;;;5058925;28;20740;-67
2022/04/08 00:28:31;;;;;;;4.40;1.30;;;8.40;86.30;;;;;;5059213;28;20032;-67
2022/04/08 00:30:57;;;;;;;5.10;1.13;;;8.30;86.00;;;;;;5038194;28;20025;-67
2022/04/08 00:33:22;;;;;;;2.03;1.10;;;8.40;86.40;;;;;;5051669;28;20033;-66
2022/04/08 00:35:48;;;;;;;3.95;1.00;;;8.40;85.90;;;;;;5057649;28;20089;-67
2022/04/08 00:38:14;;;;;;;1.60;0.90;;;8.40;87.10;;;;;;5054190;28;20043;-67
2022/04/08 00:40:39;;;;;;;2.55;0.75;;;8.40;87.20;;;;;;5057650;28;20029;-67
2022/04/08 00:43:16;;;;;;;1.58;0.63;;;8.30;86.90;;;;;;5057480;28;20963;-67
2022/04/08 00:45:43;;;;;;;1.42;0.63;;;8.30;87.80;;;;;;5058802;28;20029;-67
2022/04/08 00:48:09;;;;;;;4.05;0.70;;;8.30;88.00;;;;;;5050244;28;20782;-67
2022/04/08 00:50:41;;;;;;;2.42;0.90;;;8.30;88.20;;;;;;5054554;28;20044;-66
2022/04/08 00:53:07;;;;;;;3.65;1.02;;;8.40;88.40;;;;;;5052834;28;20032;-67
2022/04/08 00:55:35;;;;;;;2.05;0.90;;;8.30;88.60;;;;;;5054698;28;20036;-67
2022/04/08 00:58:04;;;;;;;0.88;0.68;;;8.30;88.50;;;;;;5057956;28;20058;-67
2022/04/08 01:00:39;;;;;;;2.30;0.70;;;8.30;87.50;;;;;;5058644;28;20765;-67
2022/04/08 01:03:06;;;;;;;2.43;0.97;;;8.30;87.40;;;;;;5053874;28;20048;-67
2022/04/08 01:05:32;;;;;;;2.50;0.70;;;8.30;87.60;;;;;;5056831;28;20267;-67
2022/04/08 01:07:58;;;;;;;0.57;0.57;;;8.40;87.10;;;;;;5056502;28;20756;-67
2022/04/08 01:10:25;;;;;;;4.35;0.60;;;8.40;86.90;;;;;;5056000;28;20136;-66
2022/04/08 01:12:51;;;;;;;2.92;0.70;;;8.30;86.70;;;;;;5058007;28;20020;-67
2022/04/08 01:15:18;;;;;;;2.50;0.68;;;8.30;86.30;;;;;;5057359;28;20727;-66
2022/04/08 01:17:44;;;;;;;1.08;0.70;;;8.20;87.00;;;;;;5059768;28;20024;-67
2022/04/08 01:20:11;;;;;;;4.00;0.73;;;8.10;87.10;;;;;;5056707;28;20441;-66
2022/04/08 01:22:36;;;;;;;2.10;0.50;;;8.00;87.30;;;;;;5059248;28;20028;-67
2022/04/08 01:25:10;;;;;;;2.42;0.50;;;7.90;87.90;;;;;;5056628;28;20062;-67
2022/04/08 01:27:36;;;;;;;2.47;0.52;;;7.80;88.60;;;;;;5055818;28;20028;-70
2022/04/08 01:30:04;;;;;;;0.60;0.50;;;7.70;88.50;;;;;;5062758;28;20032;-67
2022/04/08 01:32:30;;;;;;;2.35;0.68;;;7.70;88.70;;;;;;5063386;28;20088;-67
2022/04/08 01:34:56;;;;;;;1.85;0.65;;;7.60;89.70;;;;;;5063165;28;20048;-67
2022/04/08 01:37:22;;;;;;;2.35;0.70;;;7.60;89.20;;;;;;5062586;28;20116;-67
2022/04/08 01:39:48;;;;;;;2.38;0.70;;;7.60;88.80;;;;;;5062050;28;20021;-66
2022/04/08 01:42:14;;;;;;;0.43;0.43;;;7.60;89.10;;;;;;5062574;28;20040;-67
2022/04/08 01:44:40;;;;;;;1.55;0.50;;;7.60;89.00;;;;;;5060718;28;20029;-67
2022/04/08 01:47:06;;;;;;;3.03;0.90;;;7.60;88.20;;;;;;5060640;28;20028;-67
2022/04/08 01:49:32;;;;;;;3.35;0.57;;;7.50;88.30;;;;;;5063046;28;20021;-67
2022/04/08 01:51:58;;;;;;;2.03;0.70;;;7.50;89.00;;;;;;5058665;28;20488;-67
2022/04/08 01:54:24;;;;;;;2.03;0.32;;;7.60;88.40;;;;;;5061244;28;20086;-67
2022/04/08 01:56:50;;;;;;;1.38;0.82;;;7.70;87.30;;;;;;5059961;28;20028;-66
2022/04/08 01:59:15;;;;;;;2.78;1.10;;;7.80;86.40;;;;;;5059924;28;20512;-67
2022/04/08 02:01:42;;;;;;;3.75;1.02;;;8.00;85.80;;;;;;5062990;28;20615;-67
2022/04/08 02:04:07;;;;;;;1.98;0.80;;;8.10;85.50;;;;;;5057956;28;20115;-67
2022/04/08 02:06:36;;;;;;;3.80;0.63;;;8.20;84.90;;;;;;5055732;28;20507;-67
2022/04/08 02:09:03;;;;;;;4.85;0.82;;;8.20;84.50;;;;;;5056923;28;20057;-67
2022/04/08 02:11:29;;;;;;;5.00;1.08;;;8.30;83.80;;;;;;5057917;28;20040;-67
2022/04/08 02:13:55;;;;;;;4.85;0.50;;;8.30;84.00;;;;;;5059232;28;20024;-67
2022/04/08 02:16:20;;;;;;;2.45;0.38;;;8.40;84.00;;;;;;5041398;28;20033;-67
2022/04/08 02:18:46;;;;;;;4.32;0.88;;;8.50;82.80;;;;;;5062288;28;20047;-66
2022/04/08 02:21:12;;;;;;;2.30;0.75;;;8.50;83.30;;;;;;5060424;28;20032;-66
2022/04/08 02:23:38;;;;;;;4.28;0.70;;;8.50;83.60;;;;;;5058445;28;20782;-67
2022/04/08 02:26:05;;;;;;;3.00;0.70;;;8.50;83.00;;;;;;5055452;28;20055;-67
2022/04/08 02:28:34;;;;;;;2.67;0.95;;;8.50;82.50;;;;;;5062055;28;20031;-67
2022/04/08 02:31:00;;;;;;;1.42;0.70;;;8.60;83.20;;;;;;5059717;28;20042;-67
2022/04/08 02:33:25;;;;;;;1.70;0.70;;;8.70;83.10;;;;;;5061582;28;20041;-67
2022/04/08 02:35:51;;;;;;;3.22;0.85;;;8.60;82.80;;;;;;5062235;28;20024;-67
2022/04/08 02:38:17;;;;;;;3.15;0.50;;;8.60;83.40;;;;;;5061011;28;20488;-67
2022/04/08 02:40:43;;;;;;;2.22;0.75;;;8.60;83.60;;;;;;5059062;28;20062;-65
2022/04/08 02:43:09;;;;;;;2.03;0.63;;;8.60;83.70;;;;;;5055467;28;20028;-66
2022/04/08 02:45:34;;;;;;;1.10;0.38;;;8.60;83.30;;;;;;5058854;28;20722;-67
2022/04/08 02:48:00;;;;;;;2.40;0.45;;;8.50;83.30;;;;;;5059915;28;20024;-67
2022/04/08 02:50:26;;;;;;;0.68;0.40;;;8.60;83.70;;;;;;5061509;28;20144;-67
2022/04/08 02:52:51;;;;;;;2.08;0.50;;;8.60;83.60;;;;;;5060106;28;20423;-67
2022/04/08 02:55:18;;;;;;;2.50;0.70;;;8.60;83.60;;;;;;5059312;28;20116;-67
2022/04/08 02:57:47;;;;;;;1.38;0.40;;;8.60;83.90;;;;;;5057654;28;20076;-67
2022/04/08 03:00:18;;;;;;;3.47;0.65;;;8.70;84.50;;;;;;5055197;28;20029;-67
2022/04/08 03:02:45;;;;;;;2.05;0.50;;;8.60;85.20;;;;;;5057172;28;20085;-67
2022/04/08 03:05:11;;;;;;;5.05;1.77;;;8.70;86.00;;;;;;5058834;28;20068;-67
2022/04/08 03:07:37;;;;;;;2.67;0.57;;;8.60;86.10;;;;;;5058697;28;20097;-67
2022/04/08 03:10:05;;;;;;;4.20;0.90;;;8.60;86.50;;;;;;5057522;28;20098;-67
2022/04/08 03:12:32;;;;;;;0.85;0.55;;;8.60;86.40;;;;;;5057548;28;20048;-67
2022/04/08 03:14:59;;;;;;;1.80;0.57;;;8.50;88.20;;;;;;5057589;28;20063;-67
2022/04/08 03:17:25;;;;;;;2.35;0.63;;;8.40;89.60;;;;;;5058582;28;20036;-67
2022/04/08 03:19:51;;;;;;;3.10;0.70;;;8.30;90.30;;;;;;5059115;28;20043;-67
2022/04/08 03:22:20;;;;;;;1.38;0.60;;;8.20;90.90;;;;;;5059225;28;20032;-67
2022/04/08 03:24:51;;;;;;;2.08;0.73;;;8.10;91.20;;;;;;5056032;28;20032;-67
2022/04/08 03:27:17;;;;;;;1.55;0.70;;;8.00;91.50;;;;;;5056197;28;20789;-67
2022/04/08 03:29:43;;;;;;;1.27;0.70;;;8.00;91.60;;;;;;5059766;28;20028;-67
2022/04/08 03:32:09;;;;;;;4.57;0.90;;;8.00;91.40;;;;;;5060255;28;20028;-67
2022/04/08 03:34:36;;;;;;;2.47;0.60;;;8.00;91.40;;;;;;5059617;28;20028;-67
2022/04/08 03:37:01;;;;;;;4.40;0.90;;;8.00;91.70;;;;;;5059107;28;20035;-67
2022/04/08 03:39:27;;;;;;;0.90;0.60;;;8.10;91.30;;;;;;5057566;28;20040;-66
2022/04/08 03:41:53;;;;;;;0.57;0.50;;;8.10;91.40;;;;;;5059858;28;20484;-67
2022/04/08 03:44:19;;;;;;;1.02;0.70;;;8.10;91.10;;;;;;5056067;28;20035;-67
2022/04/08 03:46:46;;;;;;;2.13;0.82;;;8.20;91.00;;;;;;5058958;28;20250;-67
2022/04/08 03:49:15;;;;;;;4.45;0.80;;;8.10;91.00;;;;;;5057268;28;20044;-66
2022/04/08 03:51:42;;;;;;;1.67;0.80;;;8.10;90.70;;;;;;5059848;28;20037;-67
2022/04/08 03:54:08;;;;;;;0.60;0.55;;;8.10;91.00;;;;;;5059736;28;20036;-67
2022/04/08 03:56:35;;;;;;;1.90;0.50;;;8.10;90.70;;;;;;5053208;28;20047;-67
2022/04/08 03:59:00;;;;;;;1.38;0.55;;;8.10;90.70;;;;;;5056655;28;20024;-67
2022/04/08 04:01:26;;;;;;;2.28;0.68;;;8.10;90.90;;;;;;5054132;28;20764;-67
2022/04/08 04:03:52;;;;;;;0.88;0.65;;;8.10;90.60;;;;;;5057877;28;20032;-67
2022/04/08 04:06:18;;;;;;;2.15;0.88;;;8.10;90.70;;;;;;5054992;28;20111;-68
2022/04/08 04:08:44;;;;;;;3.78;0.57;;;8.00;91.30;;;;;;5059068;28;20031;-67
2022/04/08 04:11:17;;;;;;;0.30;0.30;;;7.70;92.00;;;;;;5059764;28;20048;-67
2022/04/08 04:13:43;;;;;;;1.05;0.60;;;7.50;92.40;;;;;;5057187;28;20137;-67
2022/04/08 04:16:10;;;;;;;0.82;0.68;;;7.30;92.90;;;;;;5056893;28;20040;-67
2022/04/08 04:18:36;;;;;;;2.88;0.65;;;7.30;93.30;;;;;;5060629;28;20028;-67
2022/04/08 04:21:02;;;;;;;2.05;0.50;;;7.30;93.50;;;;;;5056676;28;20029;-66
2022/04/08 04:23:28;;;;;;;1.67;0.80;;;7.20;93.30;;;;;;5058983;28;20497;-67
2022/04/08 04:25:54;;;;;;;5.88;0.88;;;7.20;93.10;;;;;;5059912;28;20131;-66
2022/04/08 04:28:20;;;;;;;1.98;0.50;;;7.20;92.60;;;;;;5057504;28;20036;-67
2022/04/08 04:30:45;;;;;;;1.10;0.40;;;7.10;92.60;;;;;;5056403;28;20036;-67
2022/04/08 04:33:11;;;;;;;0.47;0.40;;;7.10;92.60;;;;;;5058101;28;20071;-67
2022/04/08 04:35:38;;;;;;;2.20;0.60;;;7.20;92.50;;;;;;5055556;28;20036;-66
2022/04/08 04:38:05;;;;;;;0.77;0.60;;;7.10;92.50;;;;;;5058343;28;20075;-67
2022/04/08 04:40:31;;;;;;;2.83;0.75;;;7.10;92.70;;;;;;5060168;28;20640;-67
2022/04/08 04:42:57;;;;;;;0.85;0.50;;;7.10;92.70;;;;;;5055881;28;20040;-67
2022/04/08 04:45:23;;;;;;;3.28;0.60;;;7.20;92.70;;;;;;5054931;28;20032;-67
2022/04/08 04:47:49;;;;;;;2.90;0.57;;;7.30;92.60;;;;;;5057393;28;20117;-67
2022/04/08 04:50:15;;;;;;;1.08;0.65;;;7.30;92.30;;;;;;5054118;28;20111;-67
2022/04/08 04:52:41;;;;;;;1.13;0.95;;;7.30;92.40;;;;;;5057744;28;20463;-67
2022/04/08 04:55:07;;;;;;;1.77;0.60;;;7.30;92.40;;;;;;5047448;28;20036;-66
2022/04/08 04:57:34;;;;;;;0.43;0.43;;;7.40;92.10;;;;;;5060249;28;20032;-67
2022/04/08 04:59:59;;;;;;;4.55;0.60;;;7.40;92.00;;;;;;5056745;28;20033;-67
2022/04/08 05:02:25;;;;;;;2.20;0.47;;;7.40;92.10;;;;;;5057442;28;20390;-66
2022/04/08 05:04:51;;;;;;;2.30;0.52;;;7.40;92.00;;;;;;5061406;28;20056;-67
2022/04/08 05:07:17;;;;;;;2.42;0.57;;;7.50;92.00;;;;;;5060549;28;20086;-67
2022/04/08 05:09:42;;;;;;;2.67;0.80;;;7.50;91.90;;;;;;5063817;28;20039;-67
2022/04/08 05:12:09;;;;;;;1.20;0.40;;;7.50;91.60;;;;;;5061577;28;20028;-66
2022/04/08 05:14:35;;;;;;;1.73;0.50;;;7.60;91.50;;;;;;5061326;28;20028;-67
2022/04/08 05:17:01;;;;;;;1.95;0.70;;;7.60;91.10;;;;;;5058686;28;20105;-67
2022/04/08 05:19:27;;;;;;;1.65;0.57;;;7.60;91.10;;;;;;5062910;28;20040;-67
2022/04/08 05:21:52;;;;;;;1.42;0.50;;;7.70;91.10;;;;;;5060500;28;20036;-67
2022/04/08 05:24:19;;;;;;;2.10;0.63;;;7.70;90.90;;;;;;5061039;28;20065;-67
2022/04/08 05:26:45;;;;;;;2.25;0.55;;;7.80;91.00;;;;;;5062399;28;20493;-67
2022/04/08 05:29:11;;;;;;;3.15;0.50;;;7.90;90.60;;;;;;5063202;28;20028;-67
2022/04/08 05:31:37;;;;;;;1.38;0.30;;;8.00;90.00;;;;;;5056175;28;20746;-67
2022/04/08 05:34:03;;;;;;;2.72;0.52;;;8.00;90.00;;;;;;5063535;28;20028;-67
2022/04/08 05:36:29;;;;;;;0.50;0.30;;;8.10;90.10;;;;;;5060832;28;20075;-66
2022/04/08 05:38:55;;;;;;;1.63;0.40;;;8.10;90.00;;;;;;5060572;28;20032;-67
2022/04/08 05:41:20;;;;;;;0.52;0.50;;;8.10;89.40;;;;;;5060778;28;20082;-67
2022/04/08 05:43:46;;;;;;;0.68;0.40;;;8.20;88.60;;;;;;5061481;28;20385;-67
2022/04/08 05:46:13;;;;;;;1.65;0.40;;;8.20;87.50;;;;;;5062212;28;20131;-67
2022/04/08 05:48:39;;;;;;;1.90;0.35;;;8.10;87.90;;;;;;5060364;28;20141;-67
2022/04/08 05:51:05;;;;;;;1.83;0.52;;;8.20;87.40;;;;;;5057650;28;20058;-67
2022/04/08 05:53:30;;;;;;;4.30;1.17;;;8.20;87.30;;;;;;5060897;28;20037;-67
2022/04/08 05:55:57;;;;;;;2.30;0.70;;;8.20;86.50;;;;;;5059901;28;20509;-67
2022/04/08 05:58:24;;;;;;;0.40;0.40;;;8.20;86.80;;;;;;5061241;28;20032;-68
2022/04/08 06:00:50;;;;;;;2.67;0.70;;;8.30;86.70;;;;;;5060897;28;20060;-67
2022/04/08 06:03:16;;;;;;;2.72;0.98;;;8.20;85.60;;;;;;5060198;28;20036;-66
2022/04/08 06:05:42;;;;;;;4.07;0.80;;;8.20;85.90;;;;;;5060833;28;20484;-67
2022/04/08 06:08:07;;;;;;;4.32;0.70;;;8.30;85.20;;;;;;5059455;28;20503;-67
2022/04/08 06:10:34;;;;;;;1.83;0.47;;;8.40;85.80;;;;;;5042984;28;20507;-67
2022/04/08 06:13:01;;;;;;;1.25;0.68;;;8.50;84.90;;;;;;5058674;28;20089;-67
2022/04/08 06:15:27;;;;;;;3.58;0.88;;;8.50;83.80;;;;;;5056892;28;20029;-67
2022/04/08 06:17:57;;;;;;;2.13;1.10;;;8.50;84.30;;;;;;5060339;28;20024;-67
2022/04/08 06:20:24;;;;;;;2.00;1.10;;;8.50;85.60;;;;;;5058796;28;20032;-67
2022/04/08 06:22:50;;;;;;;2.88;0.80;;;8.50;87.10;;;;;;5059791;28;20040;-67
2022/04/08 06:25:21;;;;;;;3.38;0.90;;;8.60;87.20;;;;;;5060024;28;20047;-67
2022/04/08 06:27:58;;;;;;;2.40;0.73;;;8.60;87.00;;;;;;5061408;28;20033;-67
2022/04/08 06:30:25;;;;;;;3.17;0.60;;;8.70;86.60;;;;;;5062105;28;20040;-67
2022/04/08 06:32:50;;;;;;;1.10;0.70;;;8.80;85.60;;;;;;5062838;28;20016;-67
2022/04/08 06:35:16;;;;;;;2.33;0.80;;;9.00;85.10;;;;;;5061754;28;20134;-67
2022/04/08 06:37:42;;;;;;;1.05;0.65;;;9.30;84.20;;;;;;5060706;28;20035;-67
2022/04/08 06:40:09;;;;;;;4.18;0.70;;;9.40;83.20;;;;;;5060278;28;20038;-67
2022/04/08 06:42:35;;;;;;;2.17;0.88;;;9.40;82.30;;;;;;5058987;28;20854;-67
2022/04/08 06:45:02;;;;;;;1.75;0.90;;;9.20;82.00;;;;;;5058272;28;20033;-67
2022/04/08 06:47:28;;;;;;;2.33;0.68;;;9.20;82.70;;;;;;5061725;28;20078;-67
2022/04/08 06:49:54;;;;;;;0.82;0.60;;;9.00;83.40;;;;;;5059446;28;20036;-67
2022/04/08 06:52:20;;;;;;;1.75;0.70;;;8.80;84.70;;;;;;5041281;28;20116;-67
2022/04/08 06:54:46;;;;;;;1.55;1.10;;;8.70;86.00;;;;;;5062148;28;20028;-67
2022/04/08 06:57:11;;;;;;;2.63;0.70;;;7.90;82.60;;;;;;5040989;28;20063;-67
2022/04/08 06:59:39;;;;;;;3.33;0.52;;;7.20;83.50;;;;;;5061275;28;20125;-67
2022/04/08 07:02:05;;;;;;;2.53;0.50;;;6.80;85.90;;;;;;5041434;28;20029;-67
2022/04/08 07:04:31;;;;;;;1.25;0.63;;;6.70;87.70;;;;;;5055411;28;20481;-67
2022/04/08 07:06:56;;;;;;;3.65;0.50;;;6.70;89.00;;;;;;5057682;28;20027;-67
2022/04/08 07:09:23;;;;;;;4.65;0.85;;;6.80;89.60;;;;;;5058449;28;20028;-67
2022/04/08 07:11:48;;;;;;;0.30;0.30;;;6.80;89.60;;;;;;5057898;28;20032;-67
2022/04/08 07:14:14;;;;;;;1.13;0.60;;;6.90;90.10;;;;;;5047114;28;20612;-67
2022/04/08 07:16:43;;;;;;;5.00;0.73;;;7.00;90.10;;;;;;5060664;28;20025;-66
2022/04/08 07:19:13;;;;;;;7.82;0.90;;;7.30;90.60;;;;;;5058360;28;20044;-66
2022/04/08 07:21:38;;;;;;;5.32;0.47;;;7.80;89.30;;;;;;5053129;28;20029;-67
2022/04/08 07:24:05;;;;;;;6.18;1.02;;;8.20;85.90;;;;;;5038821;28;20496;-67
2022/04/08 07:26:31;;;;;;;5.03;0.90;;;8.40;83.90;;;;;;5046718;28;20032;-66
2022/04/08 07:28:56;;;;;;;3.72;0.73;;;8.40;84.20;;;;;;5059247;28;20035;-67
2022/04/08 07:31:22;;;;;;;2.85;1.02;;;8.50;84.00;;;;;;5057407;28;20110;-67
2022/04/08 07:33:48;;;;;;;2.78;1.10;;;8.60;83.80;;;;;;5058856;28;20043;-67
2022/04/08 07:36:15;;;;;;;7.90;1.35;;;8.90;83.00;;;;;;5056539;28;20123;-67
2022/04/08 07:38:41;;;;;;;4.05;1.58;;;9.00;81.40;;;;;;5057907;28;20036;-66
2022/04/08 07:41:06;;;;;;;4.85;0.93;;;9.50;80.70;;;;;;5041703;28;20046;-67
2022/04/08 07:43:32;;;;;;;4.13;0.85;;;10.20;78.20;;;;;;5057254;28;20024;-68
2022/04/08 07:45:58;;;;;;;4.78;0.80;;;11.30;72.30;;;;;;5055387;28;20552;-68
2022/04/08 07:48:24;;;;;;;4.38;0.80;;;12.60;69.80;;;;;;5056315;28;20173;-66
2022/04/08 07:50:49;;;;;;;4.45;0.88;;;13.80;64.80;;;;;;5060710;28;20559;-64
2022/04/08 07:53:15;;;;;;;7.05;0.90;;;15.60;57.80;;;;;;5056463;28;20056;-67
2022/04/08 07:55:41;;;;;;;4.38;1.55;;;16.90;55.20;;;;;;5057281;28;20024;-68
2022/04/08 07:58:07;;;;;;;1.85;0.80;;;16.70;54.30;;;;;;5055742;28;20037;-66
2022/04/08 08:00:34;;;;;;;4.15;0.85;;;17.00;53.20;;;;;;5057727;28;20514;-68
2022/04/08 08:02:59;;;;;;;4.95;1.88;;;17.70;50.40;;;;;;5053999;28;20110;-65
2022/04/08 08:05:26;;;;;;;4.10;1.13;;;17.70;47.20;;;;;;5056824;28;20102;-64
2022/04/08 08:07:53;;;;;;;2.90;1.27;;;18.00;47.40;;;;;;5055472;28;20036;-65
2022/04/08 08:10:30;;;;;;;4.53;1.00;;;19.20;46.40;;;;;;5055445;28;20794;-64
2022/04/08 08:12:57;;;;;;;4.15;0.82;;;21.20;43.10;;;;;;5057278;28;20079;-67
2022/04/08 08:15:24;;;;;;;11.43;3.47;;;24.40;37.70;;;;;;5057952;28;20060;-65
2022/04/08 08:17:51;;;;;;;7.43;1.70;;;26.50;33.70;;;;;;5059831;28;20085;-65
2022/04/08 08:20:19;;;;;;;5.78;1.48;;;28.60;30.80;;;;;;5054912;28;20036;-65
2022/04/08 08:22:45;;;;;;;9.48;2.95;;;29.00;30.40;;;;;;5055555;28;20145;-65
2022/04/08 08:25:11;;;;;;;4.63;1.23;;;29.50;29.40;;;;;;5057654;28;20147;-64
2022/04/08 08:27:38;;;;;;;4.43;1.15;;;28.50;29.50;;;;;;5057997;28;20032;-65
2022/04/08 08:30:05;;;;;;;7.00;1.10;;;26.30;31.90;;;;;;5058138;28;20055;-65
2022/04/08 08:32:30;;;;;;;7.53;1.52;;;25.30;31.90;;;;;;5058254;28;20122;-66
2022/04/08 08:34:56;;;;;;;4.47;0.95;;;23.60;34.30;;;;;;5058142;28;20503;-67
2022/04/08 08:37:22;;;;;;;3.90;1.40;;;21.50;38.00;;;;;;5058807;28;20119;-66
2022/04/08 08:39:47;;;;;;;3.42;0.80;;;20.00;41.60;;;;;;5055937;28;20111;-66
2022/04/08 08:42:13;;;;;;;4.45;1.20;;;18.70;42.50;;;;;;5055456;28;20113;-65
2022/04/08 08:44:39;;;;;;;5.63;1.27;;;18.50;42.80;;;;;;5052979;28;20028;-66
2022/04/08 08:47:12;;;;;;;6.82;1.30;;;18.20;42.80;;;;;;5055957;28;20036;-66
2022/04/08 08:49:41;;;;;;;14.95;5.63;;;17.70;41.40;;;;;;5053098;28;20040;-68
2022/04/08 08:52:09;;;;;;;6.00;1.33;;;18.10;43.00;;;;;;5057336;28;20036;-66
2022/04/08 08:54:35;;;;;;;4.03;0.80;;;18.10;43.90;;;;;;5059318;28;20024;-69
2022/04/08 08:57:02;;;;;;;4.05;1.13;;;17.80;43.80;;;;;;5047554;28;20105;-67
2022/04/08 08:59:29;;;;;;;9.48;0.98;;;20.40;39.90;;;;;;5054274;28;20083;-68
2022/04/08 09:02:04;;;;;;;4.15;0.98;;;20.70;37.50;;;;;;5035375;28;20580;-65
2022/04/08 09:04:30;;;;;;;2.95;1.00;;;22.90;35.50;;;;;;5054056;28;20029;-65
2022/04/08 09:06:58;;;;;;;7.40;1.10;;;23.80;34.10;;;;;;5056954;28;20504;-66
2022/04/08 09:09:32;;;;;;;5.82;1.48;;;26.80;30.70;;;;;;5057876;28;20116;-65
2022/04/08 09:12:14;;;;;;;7.07;2.53;;;29.10;29.10;;;;;;5058022;28;20082;-65
2022/04/08 09:14:50;;;;;;;8.52;2.25;;;29.00;28.40;;;;;;5053053;28;20032;-65
2022/04/08 09:17:20;;;;;;;8.60;1.10;;;27.60;28.20;;;;;;5051981;28;20063;-65
2022/04/08 09:19:50;;;;;;;6.15;1.75;;;25.20;29.90;;;;;;5054637;28;20695;-64
2022/04/08 09:22:17;;;;;;;9.85;0.98;;;22.40;32.60;;;;;;5055138;28;20041;-69
2022/04/08 09:24:43;;;;;;;4.97;1.38;;;22.20;35.50;;;;;;5040399;28;20127;-69
2022/04/08 09:27:12;;;;;;;5.50;0.90;;;25.10;30.50;;;;;;5056459;28;20655;-67
2022/04/08 09:29:42;;;;;;;4.32;1.20;;;26.50;30.20;;;;;;5054651;28;20025;-67
2022/04/08 09:32:10;;;;;;;4.78;1.02;;;27.00;28.10;;;;;;5056549;28;20033;-64
2022/04/08 09:34:37;;;;;;;5.57;1.00;;;27.60;29.40;;;;;;5056401;28;20030;-66
2022/04/08 09:37:15;;;;;;;9.07;2.22;;;27.70;27.20;;;;;;5052777;28;20742;-65
2022/04/08 09:40:03;;;;;;;6.50;1.80;;;24.90;28.20;;;;;;5056035;28;20032;-66
2022/04/08 09:42:49;;;;;;;5.38;2.08;;;22.40;36.00;;;;;;5053785;28;20028;-66
2022/04/08 09:45:29;;;;;;;6.32;1.60;;;21.00;35.60;;;;;;5054193;28;20122;-66
2022/04/08 09:47:54;;;;;;;4.22;1.48;;;21.50;36.30;;;;;;5056431;28;20040;-66
2022/04/08 09:50:20;;;;;;;5.03;1.40;;;22.50;33.80;;;;;;5058236;28;20020;-66
2022/04/08 09:52:46;;;;;;;6.63;2.00;;;21.70;34.70;;;;;;5060927;28;20062;-66
2022/04/08 09:55:16;;;;;;;3.45;1.17;;;19.30;37.60;;;;;;5061016;28;20048;-65
2022/04/08 09:57:44;;;;;;;7.88;2.03;;;18.00;39.80;;;;;;5059126;28;20082;-66
2022/04/08 10:00:10;;;;;;;2.42;0.77;;;19.00;36.50;;;;;;5058415;28;20043;-68
2022/04/08 10:02:40;;;;;;;4.80;1.25;;;19.10;37.20;;;;;;5059159;28;20040;-66
2022/04/08 10:05:08;;;;;;;3.15;1.20;;;18.00;37.70;;;;;;5060439;28;20164;-66
2022/04/08 10:07:35;;;;;;;4.72;1.45;;;16.80;41.10;;;;;;5056546;28;20028;-66
2022/04/08 10:10:24;;;;;;;3.03;0.98;;;16.10;41.70;;;;;;5061076;28;20544;-65
2022/04/08 10:13:12;;;;;;;2.72;1.00;;;15.80;43.00;;;;;;5040115;28;20036;-68
2022/04/08 10:15:42;;;;;;;4.95;1.05;;;15.20;44.90;;;;;;5058416;28;20528;-67
2022/04/08 10:18:08;;;;;;;2.50;0.70;;;14.70;46.60;;;;;;5057553;28;20501;-67
2022/04/08 10:20:35;;;;;;;5.82;0.80;;;15.20;46.80;;;;;;5059010;28;20170;-68
2022/04/08 10:23:05;;;;;;;3.58;0.93;;;17.00;43.60;;;;;;5057922;28;20498;-65
2022/04/08 10:25:58;;;;;;;3.30;1.40;;;19.90;38.60;;;;;;5060104;28;20029;-67
2022/04/08 10:28:34;;;;;;;7.53;2.17;;;21.10;35.90;;;;;;5058015;28;20020;-67
2022/04/08 10:31:00;;;;;;;3.47;0.98;;;18.90;36.30;;;;;;5051895;28;20151;-66
2022/04/08 10:33:30;;;;;;;6.57;1.80;;;17.00;40.60;;;;;;5060084;28;20107;-67
2022/04/08 10:36:01;;;;;;;2.85;0.75;;;15.60;43.30;;;;;;5060613;28;20032;-67
2022/04/08 10:38:38;;;;;;;4.55;1.08;;;14.50;47.20;;;;;;5060361;28;20035;-66
2022/04/08 10:41:11;;;;;;;3.45;1.42;;;14.10;49.00;;;;;;5059134;28;20032;-66
2022/04/08 10:43:48;;;;;;;4.32;1.10;;;14.00;49.50;;;;;;5058120;28;20074;-66
2022/04/08 10:46:26;;;;;;;4.18;1.00;;;13.90;50.70;;;;;;5060452;28;20102;-66
2022/04/08 10:48:58;;;;;;;7.30;1.77;;;13.90;50.60;;;;;;5073794;22;20060;-66
2022/04/08 10:51:29;;;;;;;7.22;1.10;;;13.70;49.40;;;;;;5056743;28;20101;-67
2022/04/08 10:54:03;;;;;;;3.03;1.50;;;13.50;51.10;;;;;;5062198;28;20032;-66
2022/04/08 10:56:35;;;;;;;3.17;1.25;;;13.30;53.50;;;;;;5062043;28;20051;-64
2022/04/08 10:59:01;;;;;;;4.93;0.90;;;13.20;54.10;;;;;;5060049;28;20068;-66
2022/04/08 11:01:27;;;;;;;3.17;1.10;;;13.40;53.10;;;;;;5059215;28;20128;-66
2022/04/08 11:03:57;;;;;;;3.45;1.08;;;14.40;51.80;;;;;;5060059;28;20282;-67
2022/04/08 11:06:26;;;;;;;2.88;0.88;;;16.40;47.20;;;;;;5061232;28;20031;-66
2022/04/08 11:08:52;;;;;;;4.15;0.82;;;17.40;43.70;;;;;;5059567;28;20020;-67
2022/04/08 11:11:31;;;;;;;4.15;2.08;;;17.40;43.40;;;;;;5058683;28;20508;-66
2022/04/08 11:13:58;;;;;;;2.67;1.23;;;17.00;42.20;;;;;;5058273;28;20124;-66
2022/04/08 11:16:33;;;;;;;2.13;0.60;;;16.20;41.80;;;;;;5056689;28;20044;-66
2022/04/08 11:19:00;;;;;;;4.63;2.00;;;16.10;44.80;;;;;;5057015;28;20040;-66
2022/04/08 11:21:28;;;;;;;3.75;2.13;;;16.20;44.20;;;;;;5060585;28;20036;-66
2022/04/08 11:24:02;;;;;;;6.32;2.03;;;16.20;45.40;;;;;;5059443;28;20028;-66
2022/04/08 11:26:31;;;;;;;4.18;1.52;;;16.30;44.50;;;;;;5059763;28;20032;-66
2022/04/08 11:29:07;;;;;;;2.38;0.60;;;16.50;45.40;;;;;;5060033;28;20039;-67
2022/04/08 11:31:33;;;;;;;5.90;1.40;;;17.00;43.90;;;;;;5058705;28;20071;-67
2022/04/08 11:34:02;;;;;;;4.15;1.20;;;17.20;43.00;;;;;;5058325;28;20115;-67
2022/04/08 11:36:28;;;;;;;6.40;1.55;;;17.10;43.40;;;;;;5059167;28;20033;-66
2022/04/08 11:38:54;;;;;;;2.25;0.85;;;16.60;43.60;;;;;;5059497;28;20028;-67
2022/04/08 11:41:21;;;;;;;5.20;1.15;;;16.20;45.50;;;;;;5057353;28;20082;-66
2022/04/08 11:43:48;;;;;;;3.95;0.90;;;15.80;45.30;;;;;;5059699;28;20811;-66
2022/04/08 11:46:16;;;;;;;3.60;0.88;;;15.50;46.20;;;;;;5059641;28;20040;-65
2022/04/08 11:48:42;;;;;;;4.57;1.17;;;15.10;47.10;;;;;;5057402;28;20427;-65
2022/04/08 11:51:08;;;;;;;1.95;0.93;;;15.00;47.80;;;;;;5059584;28;20047;-65
2022/04/08 11:53:45;;;;;;;4.45;1.17;;;14.80;47.60;;;;;;5055406;28;20474;-64
2022/04/08 11:56:11;;;;;;;8.18;1.40;;;14.40;48.20;;;;;;5040571;28;20039;-65
2022/04/08 11:58:37;;;;;;;6.63;1.27;;;13.90;49.30;;;;;;5060481;28;20082;-65
2022/04/08 12:01:03;;;;;;;3.22;1.55;;;13.40;51.50;;;;;;5059223;28;20047;-63
2022/04/08 12:03:33;;;;;;;3.20;1.10;;;13.00;51.90;;;;;;5058287;28;20032;-66
2022/04/08 12:06:00;;;;;;;3.38;1.30;;;13.00;52.40;;;;;;5057378;28;20099;-63
2022/04/08 12:08:27;;;;;;;5.10;2.17;;;13.30;52.30;;;;;;5057623;28;20039;-64
2022/04/08 12:10:56;;;;;;;6.85;3.58;;;13.90;50.90;;;;;;5058096;28;20028;-67
2022/04/08 12:13:23;;;;;;;26.35;12.27;;;14.60;49.40;;;;;;5055643;28;20054;-63
2022/04/08 12:15:53;;;;;;;18.02;8.02;;;15.20;47.80;;;;;;5058138;28;20029;-65
2022/04/08 12:18:32;;;;;;;11.68;4.18;;;15.40;46.90;;;;;;5058896;28;20413;-65
2022/04/08 12:21:00;;;;;;;10.60;4.50;;;15.70;46.70;;;;;;5058770;28;20553;-64
2022/04/08 12:23:27;;;;;;;18.50;7.90;;;15.80;45.80;;;;;;5057520;28;20115;-66
2022/04/08 12:25:58;;;;;;;8.60;3.08;;;16.00;45.40;;;;;;5057442;28;20024;-66
2022/04/08 12:28:29;;;;;;;5.97;2.85;;;16.20;46.60;;;;;;5058482;28;20128;-67
2022/04/08 12:30:55;;;;;;;5.68;2.55;;;16.30;43.30;;;;;;5058944;28;20060;-68
2022/04/08 12:33:21;;;;;;;5.72;2.72;;;16.30;43.70;;;;;;5059076;28;20108;-67
2022/04/08 12:35:47;;;;;;;5.63;1.45;;;16.10;43.10;;;;;;5058977;28;20028;-68
2022/04/08 12:38:19;;;;;;;4.20;1.70;;;16.00;43.70;;;;;;5056948;28;20049;-68
2022/04/08 12:40:46;;;;;;;6.07;1.95;;;15.90;42.60;;;;;;5058164;28;20036;-68
2022/04/08 12:43:12;;;;;;;3.13;1.23;;;15.90;41.20;;;;;;5058357;28;20033;-67
2022/04/08 12:45:38;;;;;;;4.47;2.05;;;16.00;43.30;;;;;;5056976;28;20025;-70
2022/04/08 12:48:05;;;;;;;2.78;2.03;;;16.10;42.10;;;;;;5059927;28;20064;-70
2022/04/08 12:50:32;;;;;;;7.40;2.75;;;15.70;41.40;;;;;;5060101;28;20040;-69
2022/04/08 12:52:58;;;;;;;4.60;1.85;;;15.10;43.50;;;;;;5038870;28;20547;-69
2022/04/08 12:55:24;;;;;;;2.90;1.10;;;14.40;44.40;;;;;;5056983;28;20032;-68